Time;durP1;ratioP1;P1;durP2;ratioP2;P2;SDS_P1;SDS_P2;PMS_P1;PMS_P2;Temp;Humidity;BMP_temperature;BMP_pressure;BME280_temperature;BME280_humidity;BME280_pressure;Samples;Min_cycle;Max_cycle;Signal;HPM_P1;HPM_P2
2021/09/25 00:00:56;;;;;;;;;38.00;34.33;21.20;43.50;;;;;;5035572;28;8758;-64
2021/09/25 00:03:22;;;;;;;;;35.67;34.33;21.10;42.50;;;;;;5033472;28;9363;-64
2021/09/25 00:05:48;;;;;;;;;33.00;31.67;21.10;42.40;;;;;;5034224;28;8839;-64
2021/09/25 00:08:15;;;;;;;;;35.33;34.00;21.00;42.90;;;;;;5035311;28;8828;-66
2021/09/25 00:10:41;;;;;;;;;40.00;36.00;20.90;42.90;;;;;;5027174;28;8831;-66
2021/09/25 00:13:08;;;;;;;;;38.00;35.00;20.90;43.00;;;;;;5035101;28;8888;-65
2021/09/25 00:15:35;;;;;;;;;31.00;30.33;20.90;43.10;;;;;;5033217;28;8855;-66
2021/09/25 00:18:04;;;;;;;;;35.00;33.67;20.80;43.10;;;;;;5034891;28;8896;-64
2021/09/25 00:20:29;;;;;;;;;38.67;35.00;21.00;43.10;;;;;;5035018;28;8765;-64
2021/09/25 00:22:55;;;;;;;;;34.67;33.67;20.90;43.00;;;;;;5035176;28;8808;-66
2021/09/25 00:25:22;;;;;;;;;32.00;32.00;20.90;43.10;;;;;;5033689;28;8824;-66
2021/09/25 00:27:48;;;;;;;;;31.67;31.00;20.90;43.10;;;;;;5034746;28;8824;-65
2021/09/25 00:30:15;;;;;;;;;34.00;33.00;20.80;43.50;;;;;;5034969;28;8785;-64
2021/09/25 00:32:41;;;;;;;;;34.67;33.00;20.70;43.70;;;;;;5034769;28;8769;-63
2021/09/25 00:35:09;;;;;;;;;31.00;31.00;20.80;43.70;;;;;;5034565;28;8802;-64
2021/09/25 00:37:36;;;;;;;;;33.00;32.00;20.90;43.60;;;;;;5034852;28;8797;-63
2021/09/25 00:40:03;;;;;;;;;31.00;30.00;20.80;43.30;;;;;;5032768;28;8789;-65
2021/09/25 00:42:28;;;;;;;;;34.00;33.00;20.80;43.40;;;;;;5034870;28;8761;-66
2021/09/25 00:44:54;;;;;;;;;36.00;34.67;20.80;43.50;;;;;;5031928;28;9608;-65
2021/09/25 00:47:20;;;;;;;;;35.33;33.33;20.80;43.40;;;;;;5034550;28;8854;-64
2021/09/25 00:49:46;;;;;;;;;33.33;32.00;20.80;44.60;;;;;;5034776;28;8793;-65
2021/09/25 00:52:12;;;;;;;;;28.67;28.67;20.80;43.50;;;;;;5034456;28;8762;-65
2021/09/25 00:54:39;;;;;;;;;34.00;33.33;20.80;43.30;;;;;;5032971;28;8813;-64
2021/09/25 00:57:05;;;;;;;;;33.00;31.67;20.90;43.30;;;;;;5034616;28;8808;-63
2021/09/25 00:59:32;;;;;;;;;31.67;31.67;20.80;43.30;;;;;;5034723;28;9392;-65
2021/09/25 01:01:58;;;;;;;;;24.33;24.33;20.80;43.60;;;;;;5034568;28;8765;-64
2021/09/25 01:04:24;;;;;;;;;29.00;29.00;20.80;43.40;;;;;;5034310;28;8829;-63
2021/09/25 01:06:50;;;;;;;;;25.00;25.00;20.80;43.30;;;;;;5034654;28;9475;-64
2021/09/25 01:09:16;;;;;;;;;23.33;23.33;20.70;43.50;;;;;;5032461;28;8928;-66
2021/09/25 01:11:42;;;;;;;;;32.00;31.33;20.70;43.50;;;;;;5034267;28;8777;-64
2021/09/25 01:14:09;;;;;;;;;30.33;30.33;20.70;43.50;;;;;;5033699;28;8774;-64
2021/09/25 01:16:35;;;;;;;;;30.33;30.33;20.60;43.90;;;;;;5034721;28;8813;-65
2021/09/25 01:19:00;;;;;;;;;30.00;30.00;20.70;44.00;;;;;;5038361;28;8862;-65
2021/09/25 01:21:26;;;;;;;;;27.00;27.00;20.70;43.70;;;;;;5038479;28;8777;-65
2021/09/25 01:23:52;;;;;;;;;28.00;28.00;20.70;43.60;;;;;;5036878;28;9477;-66
2021/09/25 01:26:24;;;;;;;;;30.67;30.67;20.70;43.60;;;;;;5038194;28;8888;-66
2021/09/25 01:28:53;;;;;;;;;28.33;28.33;20.70;43.60;;;;;;5038291;28;8836;-64
2021/09/25 01:31:20;;;;;;;;;28.33;28.33;20.70;43.80;;;;;;5038144;28;8777;-64
2021/09/25 01:33:50;;;;;;;;;28.67;28.67;20.70;43.90;;;;;;5038090;28;8797;-66
2021/09/25 01:36:16;;;;;;;;;29.67;29.67;20.70;43.80;;;;;;5038092;28;8846;-65
2021/09/25 01:38:44;;;;;;;;;29.00;29.00;20.70;43.80;;;;;;5035799;28;8797;-64
2021/09/25 01:41:11;;;;;;;;;29.67;29.67;20.80;43.80;;;;;;5038052;28;8844;-66
2021/09/25 01:43:37;;;;;;;;;29.33;29.33;20.70;43.90;;;;;;5037947;28;8753;-65
2021/09/25 01:46:04;;;;;;;;;31.33;30.33;20.70;44.20;;;;;;5036168;28;8806;-65
2021/09/25 01:48:30;;;;;;;;;30.00;30.00;20.60;44.00;;;;;;5037991;28;8932;-66
2021/09/25 01:50:56;;;;;;;;;29.33;29.33;20.70;43.90;;;;;;5037797;28;9518;-65
2021/09/25 01:53:22;;;;;;;;;29.33;29.33;20.70;44.10;;;;;;5036527;28;9424;-64
2021/09/25 01:55:49;;;;;;;;;31.67;31.00;20.70;44.10;;;;;;5037696;28;8780;-66
2021/09/25 01:58:15;;;;;;;;;28.33;28.33;20.60;44.20;;;;;;5037682;28;8776;-64
2021/09/25 02:00:41;;;;;;;;;32.67;30.00;20.50;44.40;;;;;;5037830;28;8754;-65
2021/09/25 02:03:11;;;;;;;;;30.00;30.00;20.50;44.60;;;;;;5037702;28;9516;-66
2021/09/25 02:05:37;;;;;;;;;29.00;29.00;20.50;44.60;;;;;;5037455;28;9546;-63
2021/09/25 02:08:04;;;;;;;;;26.00;26.00;20.50;44.60;;;;;;5035221;28;8916;-63
2021/09/25 02:10:30;;;;;;;;;30.67;30.67;20.50;44.30;;;;;;5037328;28;8777;-64
2021/09/25 02:12:57;;;;;;;;;24.67;24.67;20.40;44.40;;;;;;5037587;28;8774;-66
2021/09/25 02:15:22;;;;;;;;;26.33;26.33;20.50;44.60;;;;;;5035609;28;8880;-66
2021/09/25 02:17:48;;;;;;;;;27.00;27.00;20.50;44.70;;;;;;5037199;28;9415;-65
2021/09/25 02:20:14;;;;;;;;;22.00;22.00;20.40;44.80;;;;;;5037203;28;8798;-66
2021/09/25 02:22:40;;;;;;;;;22.33;22.00;20.30;45.10;;;;;;5035574;28;8782;-66
2021/09/25 02:25:08;;;;;;;;;29.00;29.00;20.30;45.10;;;;;;5037176;28;8796;-65
2021/09/25 02:27:41;;;;;;;;;24.33;24.33;20.30;45.20;;;;;;5036385;28;8816;-64
2021/09/25 02:30:13;;;;;;;;;22.33;22.00;20.20;45.40;;;;;;5036958;28;8866;-64
2021/09/25 02:32:39;;;;;;;;;23.00;23.00;20.30;45.50;;;;;;5036969;28;8781;-64
2021/09/25 02:35:06;;;;;;;;;23.67;23.67;20.20;45.40;;;;;;5036850;28;9463;-64
2021/09/25 02:37:32;;;;;;;;;26.33;26.33;20.20;45.40;;;;;;5034777;28;8778;-64
2021/09/25 02:39:58;;;;;;;;;29.00;29.00;20.20;45.50;;;;;;5036884;28;8766;-64
2021/09/25 02:42:24;;;;;;;;;24.67;24.67;20.20;46.60;;;;;;5036810;28;8797;-64
2021/09/25 02:44:50;;;;;;;;;27.00;27.00;20.20;45.50;;;;;;5034955;28;8892;-64
2021/09/25 02:47:15;;;;;;;;;27.33;27.33;20.20;45.50;;;;;;5036739;28;9385;-65
2021/09/25 02:49:41;;;;;;;;;22.67;22.67;20.10;45.50;;;;;;5036819;28;8839;-64
2021/09/25 02:52:07;;;;;;;;;24.00;24.00;20.10;45.50;;;;;;5035428;28;8824;-65
2021/09/25 02:54:33;;;;;;;;;27.33;27.33;20.20;45.70;;;;;;5036665;28;9613;-65
2021/09/25 02:56:58;;;;;;;;;28.00;27.00;20.10;45.50;;;;;;5036564;28;8878;-64
2021/09/25 02:59:24;;;;;;;;;26.67;26.67;20.00;45.70;;;;;;5036524;28;8809;-65
2021/09/25 03:01:50;;;;;;;;;34.33;32.00;20.00;45.80;;;;;;5036734;28;8781;-65
2021/09/25 03:04:16;;;;;;;;;29.00;29.00;20.00;45.80;;;;;;5036176;28;8836;-65
2021/09/25 03:06:42;;;;;;;;;29.00;29.00;19.90;45.90;;;;;;5034247;28;8774;-65
2021/09/25 03:09:07;;;;;;;;;30.33;29.33;19.90;46.00;;;;;;5036272;28;8798;-65
2021/09/25 03:11:33;;;;;;;;;29.67;29.67;19.80;46.00;;;;;;5036519;28;8808;-65
2021/09/25 03:13:59;;;;;;;;;30.00;29.67;19.90;46.10;;;;;;5031421;28;8786;-65
2021/09/25 03:16:25;;;;;;;;;25.67;25.67;19.90;45.90;;;;;;5036411;28;8778;-65
2021/09/25 03:18:50;;;;;;;;;30.00;29.67;19.90;45.60;;;;;;5036148;28;8770;-64
2021/09/25 03:21:16;;;;;;;;;32.67;32.67;20.00;45.40;;;;;;5034691;28;8782;-65
2021/09/25 03:23:42;;;;;;;;;33.33;33.00;20.00;45.40;;;;;;5036037;28;8765;-65
2021/09/25 03:26:08;;;;;;;;;33.33;31.33;20.00;45.50;;;;;;5036343;28;8975;-65
2021/09/25 03:28:34;;;;;;;;;32.67;31.67;19.90;45.40;;;;;;5035872;28;8810;-65
2021/09/25 03:31:00;;;;;;;;;32.33;31.00;19.90;45.50;;;;;;5036037;28;8794;-65
2021/09/25 03:33:26;;;;;;;;;30.67;30.67;19.90;45.30;;;;;;5035889;28;8805;-64
2021/09/25 03:35:51;;;;;;;;;36.75;34.75;19.80;45.50;;;;;;5033923;28;8884;-64
2021/09/25 03:38:19;;;;;;;;;32.00;32.00;19.80;45.30;;;;;;5034332;28;8769;-65
2021/09/25 03:40:49;;;;;;;;;32.33;32.00;19.70;45.60;;;;;;5024771;28;8785;-64
2021/09/25 03:43:16;;;;;;;;;33.33;32.33;19.70;46.00;;;;;;5026492;28;8798;-65
2021/09/25 03:45:42;;;;;;;;;37.33;35.00;19.70;45.90;;;;;;5035696;28;8781;-65
2021/09/25 03:48:08;;;;;;;;;33.33;32.33;19.70;46.00;;;;;;5035505;28;8827;-65
2021/09/25 03:50:35;;;;;;;;;32.33;32.00;19.70;45.80;;;;;;5024561;28;8937;-65
2021/09/25 03:53:01;;;;;;;;;36.00;34.67;19.80;45.70;;;;;;5035587;28;8795;-64
2021/09/25 03:55:27;;;;;;;;;33.25;32.25;19.80;45.60;;;;;;5035482;28;8789;-65
2021/09/25 03:57:53;;;;;;;;;31.67;30.67;19.60;45.80;;;;;;5035393;28;8808;-65
2021/09/25 04:00:20;;;;;;;;;36.75;33.75;19.60;45.90;;;;;;5035363;28;8770;-65
2021/09/25 04:02:46;;;;;;;;;36.00;33.50;19.60;46.10;;;;;;5035158;28;8770;-65
2021/09/25 04:05:12;;;;;;;;;37.25;34.50;19.50;46.40;;;;;;5033405;28;8805;-65
2021/09/25 04:07:38;;;;;;;;;32.67;31.33;19.50;46.40;;;;;;5035181;28;8765;-64
2021/09/25 04:10:06;;;;;;;;;37.25;34.25;19.50;46.50;;;;;;5035126;28;8872;-64
2021/09/25 04:12:32;;;;;;;;;36.67;35.00;19.50;46.60;;;;;;5035147;28;8790;-65
2021/09/25 04:14:58;;;;;;;;;34.25;33.25;19.50;46.50;;;;;;5012296;28;8809;-65
2021/09/25 04:17:24;;;;;;;;;37.67;34.33;19.50;46.30;;;;;;5035341;28;8855;-65
2021/09/25 04:19:50;;;;;;;;;36.75;33.75;19.40;46.60;;;;;;5033171;28;8868;-64
2021/09/25 04:35:11;;;;;;;;;39.00;35.67;19.30;46.20;;;;;;5137839;27;14005;-65
2021/09/25 04:37:37;;;;;;;;;33.33;32.33;19.10;47.40;;;;;;5132787;27;8808;-65
2021/09/25 04:40:03;;;;;;;;;38.33;36.00;19.30;47.20;;;;;;5131159;27;8777;-65
2021/09/25 04:42:29;;;;;;;;;45.00;39.25;19.30;46.80;;;;;;5132632;27;8789;-65
2021/09/25 04:44:55;;;;;;;;;47.00;40.25;19.40;46.50;;;;;;5132537;27;8776;-65
2021/09/25 04:47:21;;;;;;;;;43.75;38.00;19.40;46.50;;;;;;5132471;27;8867;-64
2021/09/25 04:49:47;;;;;;;;;41.75;36.75;19.40;46.60;;;;;;5131702;27;8761;-64
2021/09/25 04:52:13;;;;;;;;;32.50;31.00;19.40;46.60;;;;;;5132537;27;8793;-65
2021/09/25 04:54:38;;;;;;;;;34.75;33.00;19.40;46.40;;;;;;5132332;27;8789;-64
2021/09/25 04:57:04;;;;;;;;;40.00;36.00;19.40;46.10;;;;;;5131792;27;9280;-66
2021/09/25 04:59:30;;;;;;;;;35.00;33.00;19.40;46.30;;;;;;5131939;27;9427;-66
2021/09/25 05:01:56;;;;;;;;;38.50;35.00;19.40;46.40;;;;;;5129364;27;8769;-66
2021/09/25 05:04:22;;;;;;;;;42.75;37.75;19.40;46.40;;;;;;5131437;27;8828;-65
2021/09/25 05:06:47;;;;;;;;;47.00;40.50;19.40;46.30;;;;;;5130731;27;8766;-66
2021/09/25 05:09:13;;;;;;;;;43.00;37.75;19.30;46.40;;;;;;5129925;27;8780;-66
2021/09/25 05:11:39;;;;;;;;;45.00;39.00;19.30;46.50;;;;;;5129772;27;8774;-66
2021/09/25 05:14:05;;;;;;;;;46.75;40.25;19.20;46.60;;;;;;5130624;27;8762;-66
2021/09/25 05:16:31;;;;;;;;;40.25;36.25;19.30;46.70;;;;;;5130603;27;9470;-66
2021/09/25 05:18:57;;;;;;;;;43.50;38.25;19.30;46.50;;;;;;5130195;27;8746;-66
2021/09/25 05:21:24;;;;;;;;;41.25;37.25;19.40;46.50;;;;;;5129086;27;8769;-66
2021/09/25 05:23:51;;;;;;;;;41.25;37.50;19.40;46.50;;;;;;5128163;27;8774;-66
2021/09/25 05:26:17;;;;;;;;;42.25;37.50;19.50;46.70;;;;;;5130178;27;8762;-66
2021/09/25 05:28:42;;;;;;;;;41.75;37.50;19.40;46.90;;;;;;5131387;27;8850;-66
2021/09/25 05:31:11;;;;;;;;;41.50;36.50;19.40;46.90;;;;;;5131732;27;8746;-66
2021/09/25 05:33:39;;;;;;;;;38.00;35.25;19.50;46.70;;;;;;5142127;27;8803;-63
2021/09/25 05:36:05;;;;;;;;;40.75;35.75;19.60;46.70;;;;;;5139180;27;8778;-67
2021/09/25 05:38:31;;;;;;;;;45.50;39.50;19.60;46.70;;;;;;5121626;27;8772;-64
2021/09/25 05:40:56;;;;;;;;;41.50;36.50;19.70;46.70;;;;;;5116324;28;8754;-64
2021/09/25 05:43:22;;;;;;;;;36.00;33.50;19.60;46.30;;;;;;5115426;28;8806;-64
2021/09/25 05:45:48;;;;;;;;;40.50;36.50;19.70;46.30;;;;;;5116229;28;8772;-64
2021/09/25 05:48:14;;;;;;;;;37.25;34.00;19.70;46.10;;;;;;5116332;28;8774;-65
2021/09/25 05:50:39;;;;;;;;;41.50;36.00;19.70;46.30;;;;;;5117400;28;8767;-65
2021/09/25 05:53:05;;;;;;;;;41.00;36.00;19.80;46.20;;;;;;5117300;28;8805;-65
2021/09/25 05:55:31;;;;;;;;;37.75;35.75;19.80;46.30;;;;;;5134839;27;8755;-64
2021/09/25 05:58:02;;;;;;;;;40.00;36.00;19.80;46.30;;;;;;5138133;27;8759;-64
2021/09/25 06:00:29;;;;;;;;;40.25;37.00;19.90;46.30;;;;;;5121630;27;8766;-64
2021/09/25 06:02:57;;;;;;;;;42.75;37.75;20.00;46.10;;;;;;5126333;27;8853;-65
2021/09/25 06:05:24;;;;;;;;;38.50;34.75;20.00;46.20;;;;;;5137798;27;8793;-64
2021/09/25 06:07:51;;;;;;;;;28.50;28.50;20.10;46.10;;;;;;5137742;27;8774;-65
2021/09/25 06:10:16;;;;;;;;;35.67;34.33;20.10;45.90;;;;;;5123423;27;8781;-65
2021/09/25 06:12:42;;;;;;;;;43.75;39.00;20.20;45.80;;;;;;5117425;28;8785;-64
2021/09/25 06:15:08;;;;;;;;;49.75;43.00;20.30;45.80;;;;;;5117118;28;9402;-65
2021/09/25 06:17:34;;;;;;;;;45.25;39.50;20.30;45.60;;;;;;5125120;27;8799;-65
2021/09/25 06:20:00;;;;;;;;;43.75;37.50;20.40;45.60;;;;;;5137531;27;8771;-65
2021/09/25 06:22:26;;;;;;;;;42.50;37.25;20.50;46.50;;;;;;5137453;27;8882;-65
2021/09/25 06:24:53;;;;;;;;;42.50;39.25;20.50;45.40;;;;;;5136051;27;8787;-65
2021/09/25 06:27:19;;;;;;;;;40.75;36.00;20.50;45.30;;;;;;5117403;27;8888;-64
2021/09/25 06:29:45;;;;;;;;;41.75;38.75;20.60;45.20;;;;;;5117313;28;8864;-64
2021/09/25 06:32:10;;;;;;;;;37.75;36.50;20.60;45.20;;;;;;5124059;27;8866;-65
2021/09/25 06:34:36;;;;;;;;;36.00;33.33;20.60;45.20;;;;;;5137216;27;8851;-65
2021/09/25 06:37:03;;;;;;;;;50.75;43.75;20.70;45.20;;;;;;5137483;27;8792;-65
2021/09/25 06:39:30;;;;;;;;;36.00;34.00;20.70;45.30;;;;;;5137408;27;9420;-65
2021/09/25 06:41:56;;;;;;;;;35.75;32.75;20.70;45.30;;;;;;5137168;27;8755;-62
2021/09/25 06:44:21;;;;;;;;;41.00;36.75;20.80;45.40;;;;;;5137216;27;8874;-62
2021/09/25 06:46:47;;;;;;;;;33.67;32.67;20.90;45.20;;;;;;5134023;27;9404;-62
2021/09/25 06:49:13;;;;;;;;;40.00;35.67;20.90;45.20;;;;;;5122692;27;8789;-62
2021/09/25 06:51:39;;;;;;;;;37.67;35.67;21.00;45.10;;;;;;5115821;28;8794;-62
2021/09/25 06:54:05;;;;;;;;;40.00;36.00;21.10;45.10;;;;;;5125197;27;8759;-62
2021/09/25 06:56:31;;;;;;;;;42.25;38.25;21.20;44.90;;;;;;5136870;27;8751;-61
2021/09/25 06:58:56;;;;;;;;;36.33;34.33;21.20;45.10;;;;;;5137089;27;8758;-62
2021/09/25 07:01:22;;;;;;;;;38.33;35.67;21.20;44.90;;;;;;5130541;27;9434;-61
2021/09/25 07:03:48;;;;;;;;;39.33;36.67;21.30;44.80;;;;;;5128751;27;8803;-62
2021/09/25 07:06:14;;;;;;;;;34.67;32.67;21.50;44.60;;;;;;5118577;27;8776;-64
2021/09/25 07:08:40;;;;;;;;;33.33;32.67;21.50;44.50;;;;;;5136518;27;8779;-66
2021/09/25 07:11:06;;;;;;;;;32.00;30.33;21.60;44.40;;;;;;5136402;27;8784;-69
2021/09/25 07:13:31;;;;;;;;;33.00;32.00;21.70;44.10;;;;;;5136391;27;8759;-69
2021/09/25 07:15:57;;;;;;;;;30.00;30.00;21.70;44.30;;;;;;5107250;28;8874;-69
2021/09/25 07:18:23;;;;;;;;;25.67;25.67;21.80;44.30;;;;;;5122023;27;8799;-67
2021/09/25 07:20:49;;;;;;;;;29.67;29.67;21.80;44.50;;;;;;5116614;27;8876;-71
2021/09/25 07:23:15;;;;;;;;;24.67;24.67;21.90;44.30;;;;;;5120125;27;8807;-70
2021/09/25 07:25:41;;;;;;;;;27.67;27.67;22.00;44.10;;;;;;5127224;27;8804;-71
2021/09/25 07:28:08;;;;;;;;;30.00;30.00;22.10;43.80;;;;;;5115537;28;8774;-70
2021/09/25 07:30:37;;;;;;;;;27.67;27.67;22.10;43.50;;;;;;5114548;28;8900;-69
2021/09/25 07:33:06;;;;;;;;;33.00;32.67;22.20;43.30;;;;;;5116224;27;8806;-69
2021/09/25 07:35:34;;;;;;;;;25.33;25.33;22.20;43.20;;;;;;5114168;28;8940;-68
2021/09/25 07:38:05;;;;;;;;;23.00;23.00;22.20;42.80;;;;;;5097757;28;8795;-69
2021/09/25 07:40:32;;;;;;;;;27.00;27.00;22.30;42.70;;;;;;5115553;28;8742;-66
2021/09/25 07:42:58;;;;;;;;;25.33;25.33;22.40;42.60;;;;;;5112928;28;8806;-67
2021/09/25 07:45:25;;;;;;;;;24.33;24.33;22.40;42.60;;;;;;5114249;28;8777;-68
2021/09/25 07:47:51;;;;;;;;;22.00;22.00;22.50;42.60;;;;;;5113487;28;8762;-70
2021/09/25 07:50:17;;;;;;;;;22.67;22.67;22.60;42.60;;;;;;5115630;28;8753;-71
2021/09/25 07:52:43;;;;;;;;;22.67;22.67;22.60;42.40;;;;;;5115498;27;8770;-70
2021/09/25 07:55:10;;;;;;;;;22.33;22.00;22.70;42.40;;;;;;5115214;28;8749;-70
2021/09/25 07:57:37;;;;;;;;;23.67;23.67;22.70;42.50;;;;;;5113320;28;8766;-70
2021/09/25 08:00:06;;;;;;;;;34.33;33.33;22.80;42.50;;;;;;5114239;28;8758;-69
2021/09/25 08:02:31;;;;;;;;;28.00;28.00;22.80;42.20;;;;;;5115489;27;8766;-66
2021/09/25 08:04:57;;;;;;;;;28.33;28.33;23.00;43.20;;;;;;5114448;28;8778;-69
2021/09/25 08:07:23;;;;;;;;;26.33;24.67;23.00;41.90;;;;;;5115034;28;8802;-70
2021/09/25 08:09:49;;;;;;;;;20.00;20.00;23.10;41.70;;;;;;5114932;28;8809;-68
2021/09/25 08:12:15;;;;;;;;;18.00;18.00;23.10;41.30;;;;;;5114774;28;8773;-69
2021/09/25 08:14:40;;;;;;;;;16.00;16.00;23.10;41.10;;;;;;5113824;28;8789;-68
2021/09/25 08:17:06;;;;;;;;;16.67;16.67;23.20;40.80;;;;;;5116788;27;8792;-69
2021/09/25 08:19:32;;;;;;;;;18.33;18.33;23.40;40.60;;;;;;5112518;28;8770;-69
2021/09/25 08:21:58;;;;;;;;;15.67;15.67;23.40;40.60;;;;;;5114756;28;8793;-70
2021/09/25 08:24:23;;;;;;;;;19.67;19.67;23.50;40.50;;;;;;5113072;28;8820;-68
2021/09/25 08:26:49;;;;;;;;;20.00;20.00;23.50;40.40;;;;;;5114005;28;8769;-67
2021/09/25 08:29:15;;;;;;;;;21.67;21.67;23.60;40.30;;;;;;5113985;28;8796;-69
2021/09/25 08:31:40;;;;;;;;;23.00;23.00;23.60;40.10;;;;;;5113196;28;8790;-70
2021/09/25 08:34:06;;;;;;;;;22.33;22.33;23.60;40.00;;;;;;5114377;28;8833;-67
2021/09/25 08:36:32;;;;;;;;;23.00;23.00;23.70;40.10;;;;;;5114440;28;8813;-70
2021/09/25 08:38:58;;;;;;;;;21.67;21.67;23.70;40.00;;;;;;5095195;28;8827;-69
2021/09/25 08:41:24;;;;;;;;;25.33;25.33;23.80;39.70;;;;;;5113818;28;8884;-70
2021/09/25 08:43:51;;;;;;;;;21.00;21.00;23.90;39.60;;;;;;5114488;28;8810;-71
2021/09/25 08:46:16;;;;;;;;;15.00;15.00;24.00;39.30;;;;;;5116835;28;8782;-69
2021/09/25 08:48:42;;;;;;;;;18.67;18.67;24.00;39.00;;;;;;5114816;28;9522;-70
2021/09/25 08:51:09;;;;;;;;;16.00;16.00;24.10;39.00;;;;;;5114291;28;8774;-70
2021/09/25 08:53:36;;;;;;;;;19.33;19.33;24.20;38.80;;;;;;5120483;27;8771;-69
2021/09/25 08:56:02;;;;;;;;;18.00;18.00;24.30;38.40;;;;;;5113983;28;8877;-68
2021/09/25 08:58:28;;;;;;;;;16.33;16.33;24.30;38.20;;;;;;5111438;28;8778;-70
2021/09/25 09:00:55;;;;;;;;;15.00;15.00;24.40;38.10;;;;;;5112846;28;8912;-69
2021/09/25 09:03:30;;;;;;;;;18.00;18.00;24.40;38.00;;;;;;5109740;28;9450;-68
2021/09/25 09:06:36;;;;;;;;;18.33;18.33;24.50;37.80;;;;;;5114328;28;8774;-69
2021/09/25 09:09:09;;;;;;;;;15.33;15.33;24.60;37.90;;;;;;5127804;27;8788;-70
2021/09/25 09:11:43;;;;;;;;;14.33;14.33;24.70;37.50;;;;;;5138101;27;8755;-70
2021/09/25 09:14:14;;;;;;;;;15.33;15.33;24.70;37.50;;;;;;5117886;28;8805;-67
2021/09/25 09:16:40;;;;;;;;;16.00;16.00;24.80;37.30;;;;;;5121876;27;8771;-70
2021/09/25 09:19:06;;;;;;;;;16.00;16.00;24.90;37.40;;;;;;5138897;27;8820;-69
2021/09/25 09:21:32;;;;;;;;;11.33;11.33;25.00;36.80;;;;;;5125574;27;9427;-70
2021/09/25 09:24:00;;;;;;;;;13.67;13.67;25.00;36.70;;;;;;5122131;27;9484;-69
2021/09/25 09:26:29;;;;;;;;;14.00;14.00;25.10;36.40;;;;;;5116088;28;8750;-69
2021/09/25 09:28:57;;;;;;;;;13.67;13.67;25.20;36.50;;;;;;5117595;28;8766;-68
2021/09/25 09:31:24;;;;;;;;;15.67;15.67;25.30;36.50;;;;;;5117277;28;8778;-69
2021/09/25 09:33:55;;;;;;;;;13.33;13.33;25.40;36.10;;;;;;5117599;28;8841;-69
2021/09/25 09:36:37;;;;;;;;;15.00;15.00;25.40;35.40;;;;;;5116808;28;8782;-70
2021/09/25 09:39:14;;;;;;;;;14.33;14.33;25.50;35.10;;;;;;5116847;28;11453;-68
2021/09/25 09:41:53;;;;;;;;;16.00;16.00;25.60;35.50;;;;;;5116449;28;11424;-68
2021/09/25 09:44:29;;;;;;;;;14.33;14.33;25.60;35.00;;;;;;5115472;28;12203;-68
2021/09/25 09:47:02;;;;;;;;;13.67;13.67;25.70;34.80;;;;;;5117656;28;11551;-69
2021/09/25 09:49:37;;;;;;;;;15.33;15.33;25.70;34.60;;;;;;5115919;28;11443;-69
2021/09/25 09:52:11;;;;;;;;;16.67;16.67;25.80;34.20;;;;;;5116366;28;11465;-67
2021/09/25 09:54:40;;;;;;;;;19.00;19.00;25.80;34.30;;;;;;5127946;27;11485;-64
2021/09/25 09:57:10;;;;;;;;;20.67;20.67;25.90;34.60;;;;;;5117085;27;8792;-68
2021/09/25 09:59:38;;;;;;;;;20.67;20.67;26.00;34.70;;;;;;5115251;28;8773;-69
2021/09/25 10:02:05;;;;;;;;;16.33;16.33;26.10;34.50;;;;;;5116928;28;8765;-64
2021/09/25 10:04:31;;;;;;;;;16.00;16.00;26.30;34.80;;;;;;5117393;28;11559;-65
2021/09/25 10:06:57;;;;;;;;;16.00;16.00;26.50;34.00;;;;;;5116497;28;11428;-64
2021/09/25 10:09:28;;;;;;;;;19.33;19.33;26.70;33.60;;;;;;5117178;28;11593;-67
2021/09/25 10:11:57;;;;;;;;;13.33;13.33;26.80;32.80;;;;;;5114677;28;11458;-66
2021/09/25 10:14:25;;;;;;;;;10.00;10.00;27.00;33.20;;;;;;5115812;28;11527;-66
2021/09/25 10:16:52;;;;;;;;;16.00;16.00;27.20;32.50;;;;;;5116571;28;11383;-66
2021/09/25 10:19:22;;;;;;;;;16.00;16.00;27.50;32.40;;;;;;5114514;28;11600;-67
2021/09/25 10:21:51;;;;;;;;;13.25;13.25;27.70;31.40;;;;;;5112289;28;11600;-65
2021/09/25 10:24:37;;;;;;;;;14.00;14.00;28.00;31.30;;;;;;5131902;27;11419;-67
2021/09/25 10:27:05;;;;;;;;;13.67;13.67;28.30;30.70;;;;;;5113860;28;11509;-65
2021/09/25 10:29:31;;;;;;;;;14.00;14.00;28.50;30.10;;;;;;5116530;28;11428;-65
2021/09/25 10:32:16;;;;;;;;;15.00;15.00;28.80;29.90;;;;;;5115769;28;12077;-65
2021/09/25 10:35:10;;;;;;;;;13.75;12.75;29.20;29.60;;;;;;5113148;28;11470;-68
2021/09/25 10:37:42;;;;;;;;;20.00;20.00;29.40;29.20;;;;;;5111890;28;11544;-66
2021/09/25 10:40:14;;;;;;;;;14.50;14.50;29.60;28.90;;;;;;5115104;28;11434;-68
2021/09/25 10:42:49;;;;;;;;;14.75;14.75;29.80;28.50;;;;;;5115437;28;11533;-70
2021/09/25 10:45:34;;;;;;;;;13.25;13.25;30.20;28.30;;;;;;5116025;28;12103;-69
2021/09/25 10:48:23;;;;;;;;;11.50;11.50;30.50;28.00;;;;;;5124611;27;11545;-69
2021/09/25 10:50:56;;;;;;;;;11.50;11.50;30.70;27.70;;;;;;5118116;27;11543;-69
2021/09/25 10:53:25;;;;;;;;;15.75;15.75;31.00;27.40;;;;;;5126906;27;11489;-71
2021/09/25 10:55:54;;;;;;;;;12.75;12.75;31.30;27.30;;;;;;5136851;27;11411;-68
2021/09/25 10:58:30;;;;;;;;;14.00;14.00;31.60;26.90;;;;;;5137002;27;11491;-69
2021/09/25 11:01:00;;;;;;;;;14.00;14.00;31.70;26.70;;;;;;5136754;27;12120;-68
2021/09/25 11:03:41;;;;;;;;;13.25;13.25;31.70;26.10;;;;;;5116803;27;11480;-69
2021/09/25 11:06:21;;;;;;;;;14.75;14.75;31.90;25.80;;;;;;5116119;28;11423;-68
2021/09/25 11:08:51;;;;;;;;;11.75;11.75;32.20;25.70;;;;;;5114961;28;11546;-70
2021/09/25 11:11:19;;;;;;;;;20.25;20.25;32.40;25.20;;;;;;5115173;28;11408;-66
2021/09/25 11:14:00;;;;;;;;;9.00;9.00;32.60;25.30;;;;;;5115195;28;11486;-67
2021/09/25 11:16:49;;;;;;;;;19.50;19.50;32.50;24.70;;;;;;5114905;27;11503;-68
2021/09/25 11:19:21;;;;;;;;;17.00;17.00;32.90;25.10;;;;;;5095503;28;11623;-66
2021/09/25 11:22:06;;;;;;;;;14.00;14.00;33.30;24.90;;;;;;5100852;27;11426;-66
2021/09/25 11:24:33;;;;;;;;;16.00;15.25;33.70;24.40;;;;;;5118027;27;11429;-68
2021/09/25 11:27:01;;;;;;;;;17.00;17.00;34.00;24.30;;;;;;5135991;27;11425;-68
2021/09/25 11:29:27;;;;;;;;;15.00;15.00;34.10;23.70;;;;;;5117326;27;11488;-68
2021/09/25 11:32:03;;;;;;;;;10.75;10.75;34.40;23.50;;;;;;5095166;28;11464;-67
2021/09/25 11:34:30;;;;;;;;;12.25;12.25;34.70;22.70;;;;;;5114780;28;11477;-66
2021/09/25 11:37:00;;;;;;;;;11.00;11.00;36.20;21.60;;;;;;5115490;28;11416;-68
2021/09/25 11:39:39;;;;;;;;;11.50;11.50;39.10;18.90;;;;;;5114774;28;11420;-68
2021/09/25 11:42:31;;;;;;;;;12.00;12.00;41.20;17.00;;;;;;5111239;28;11435;-68
2021/09/25 11:45:00;;;;;;;;;12.00;12.00;43.40;15.50;;;;;;5114622;28;11434;-68
2021/09/25 11:47:36;;;;;;;;;8.00;8.00;45.40;14.70;;;;;;5114700;28;11433;-69
2021/09/25 11:50:15;;;;;;;;;12.00;12.00;46.80;13.80;;;;;;5115439;28;11385;-67
2021/09/25 11:52:43;;;;;;;;;10.75;10.75;48.60;13.70;;;;;;5124073;27;11413;-69
2021/09/25 11:55:10;;;;;;;;;11.00;11.00;50.10;13.10;;;;;;5121554;27;11429;-67
2021/09/25 11:57:37;;;;;;;;;11.25;11.25;50.40;12.60;;;;;;5113718;28;11503;-66
2021/09/25 12:00:22;;;;;;;;;10.75;10.75;51.10;12.70;;;;;;5114157;28;11445;-67
2021/09/25 12:02:50;;;;;;;;;12.00;12.00;52.30;11.90;;;;;;5114853;28;11446;-65
2021/09/25 12:05:52;;;;;;;;;9.75;9.75;53.20;11.80;;;;;;5114943;28;11429;-67
2021/09/25 12:08:29;;;;;;;;;10.00;10.00;54.00;11.20;;;;;;5012547;28;11473;-66
2021/09/25 12:11:01;;;;;;;;;10.00;10.00;54.50;10.80;;;;;;5009358;28;11647;-64
2021/09/25 12:13:33;;;;;;;;;7.75;7.75;55.10;10.60;;;;;;5005786;28;11585;-66
2021/09/25 12:16:19;;;;;;;;;11.75;11.75;55.50;10.10;;;;;;5012334;28;11413;-67
2021/09/25 12:18:51;;;;;;;;;10.50;10.50;56.00;9.90;;;;;;5012275;28;11566;-68
2021/09/25 12:21:34;;;;;;;;;11.50;11.50;56.50;9.80;;;;;;5019312;28;11552;-71
2021/09/25 12:24:06;;;;;;;;;9.75;9.75;56.10;9.50;;;;;;4992662;28;11499;-69
2021/09/25 12:26:34;;;;;;;;;10.00;10.00;55.90;9.40;;;;;;4992726;28;11463;-70
2021/09/25 12:29:11;;;;;;;;;10.00;10.00;55.60;9.50;;;;;;4992672;28;11510;-70
2021/09/25 12:31:39;;;;;;;;;10.00;10.00;56.00;9.90;;;;;;4992671;28;11433;-71
2021/09/25 12:34:10;;;;;;;;;10.75;10.75;56.30;9.70;;;;;;4992407;28;11635;-68
2021/09/25 12:36:39;;;;;;;;;10.75;10.75;55.80;10.00;;;;;;4992618;28;11608;-70
2021/09/25 12:39:09;;;;;;;;;9.00;9.00;55.60;10.50;;;;;;4998747;28;11538;-65
2021/09/25 12:41:37;;;;;;;;;10.50;10.50;55.10;10.90;;;;;;5033978;28;11372;-64
2021/09/25 12:44:06;;;;;;;;;10.75;10.75;54.00;10.80;;;;;;5113501;28;11494;-65
2021/09/25 12:46:34;;;;;;;;;10.00;10.00;53.40;11.30;;;;;;5114501;28;11399;-65
2021/09/25 12:49:03;;;;;;;;;9.50;9.50;51.90;10.80;;;;;;5117331;28;11404;-65
2021/09/25 12:51:35;;;;;;;;;9.00;9.00;50.50;11.30;;;;;;5116271;28;11397;-65
2021/09/25 12:54:04;;;;;;;;;10.25;10.25;49.90;11.40;;;;;;5118643;27;12034;-65